createdAt,value
2018-12-15T00:02:03.346Z,12.57
2018-12-15T00:04:35.602Z,13.33
2018-12-15T00:07:07.652Z,12.60
2018-12-15T00:09:36.961Z,12.97
2018-12-15T00:12:07.382Z,13.77
2018-12-15T00:14:37.191Z,12.40
2018-12-15T00:17:06.446Z,13.20
2018-12-15T00:19:35.751Z,12.13
2018-12-15T00:22:10.464Z,12.83
2018-12-15T00:24:52.171Z,13.43
2018-12-15T00:27:22.002Z,13.30
2018-12-15T00:29:52.222Z,12.67
2018-12-15T00:32:22.438Z,13.23
2018-12-15T00:34:59.927Z,12.57
2018-12-15T00:37:37.704Z,12.33
2018-12-15T00:40:22.045Z,12.90
2018-12-15T00:42:58.358Z,12.17
2018-12-15T00:45:38.509Z,12.10
2018-12-15T00:48:16.957Z,13.17
2018-12-15T00:50:46.639Z,12.70
2018-12-15T00:53:20.071Z,12.50
2018-12-15T00:55:50.894Z,11.90
2018-12-15T00:58:21.431Z,11.57
2018-12-15T01:00:52.303Z,11.70
2018-12-15T01:03:24.198Z,11.60
2018-12-15T01:05:55.383Z,11.80
2018-12-15T01:08:28.477Z,12.53
2018-12-15T01:10:59.518Z,11.53
2018-12-15T01:13:30.694Z,10.87
2018-12-15T01:16:01.929Z,11.47
2018-12-15T01:18:33.881Z,10.97
2018-12-15T01:21:04.635Z,10.60
2018-12-15T01:23:39.013Z,10.93
2018-12-15T01:26:09.249Z,11.13
2018-12-15T01:28:40.588Z,10.40
2018-12-15T01:31:13.310Z,10.57
2018-12-15T01:33:47.281Z,10.10
2018-12-15T01:36:16.622Z,10.40
2018-12-15T01:38:45.968Z,10.43
2018-12-15T01:41:16.168Z,10.23
2018-12-15T01:43:47.067Z,10.77
2018-12-15T01:46:16.240Z,10.53
2018-12-15T01:48:45.452Z,11.00
2018-12-15T01:51:14.641Z,10.40
2018-12-15T01:53:43.958Z,10.43
2018-12-15T01:56:14.132Z,10.83
2018-12-15T01:58:43.295Z,11.57
2018-12-15T02:01:12.485Z,11.10
2018-12-15T02:03:43.046Z,10.53
2018-12-15T02:06:12.288Z,11.00
2018-12-15T02:08:43.600Z,10.97
2018-12-15T02:11:14.884Z,10.50
2018-12-15T02:13:44.065Z,10.90
2018-12-15T02:16:13.465Z,11.03
2018-12-15T02:18:43.157Z,11.33
2018-12-15T02:21:12.951Z,11.77
2018-12-15T02:23:43.113Z,11.13
2018-12-15T02:26:12.491Z,11.70
2018-12-15T02:28:44.259Z,10.90
2018-12-15T02:31:13.989Z,11.73
2018-12-15T02:33:43.187Z,11.40
2018-12-15T02:36:12.356Z,11.20
2018-12-15T02:38:42.298Z,11.33
2018-12-15T02:41:11.920Z,11.33
2018-12-15T02:43:41.572Z,11.43
2018-12-15T02:46:10.720Z,10.80
2018-12-15T02:48:39.920Z,9.63
2018-12-15T02:51:09.124Z,10.10
2018-12-15T02:53:40.102Z,10.33
2018-12-15T02:56:09.964Z,10.33
2018-12-15T02:58:39.215Z,10.70
2018-12-15T03:01:08.464Z,10.67
2018-12-15T03:03:37.623Z,10.83
2018-12-15T03:06:07.232Z,10.07
2018-12-15T03:08:38.018Z,10.37
2018-12-15T03:11:07.143Z,9.97
2018-12-15T03:13:36.301Z,9.47
2018-12-15T03:16:05.605Z,9.60
2018-12-15T03:18:36.706Z,9.60
2018-12-15T03:21:06.519Z,10.17
2018-12-15T03:23:36.372Z,10.97
2018-12-15T03:26:05.640Z,10.20
2018-12-15T03:28:36.124Z,10.23
2018-12-15T03:31:05.346Z,11.20
2018-12-15T03:33:36.084Z,10.60
2018-12-15T03:36:05.383Z,9.83
2018-12-15T03:38:34.556Z,9.87
2018-12-15T03:41:05.076Z,10.23
2018-12-15T03:43:34.472Z,10.57
2018-12-15T03:46:04.166Z,10.67
2018-12-15T03:48:34.052Z,10.53
2018-12-15T03:51:04.223Z,10.63
2018-12-15T03:53:33.889Z,10.83
2018-12-15T03:56:03.037Z,11.10
2018-12-15T03:58:32.844Z,11.07
2018-12-15T04:01:02.168Z,10.83
2018-12-15T04:03:34.781Z,10.27
2018-12-15T04:06:03.977Z,10.57
2018-12-15T04:08:33.168Z,10.37
2018-12-15T04:11:02.345Z,10.23
2018-12-15T04:13:32.158Z,11.00
2018-12-15T04:16:02.494Z,10.27
2018-12-15T04:18:31.841Z,11.90
2018-12-15T04:21:02.554Z,11.40
2018-12-15T04:23:31.796Z,10.73
2018-12-15T04:26:02.027Z,11.93
2018-12-15T04:28:31.684Z,10.83
2018-12-15T04:31:00.891Z,10.70
2018-12-15T04:33:30.253Z,11.50
2018-12-15T04:36:02.919Z,10.30
2018-12-15T04:38:33.162Z,10.20
2018-12-15T04:41:02.389Z,10.97
2018-12-15T04:43:31.564Z,10.57
2018-12-15T04:46:00.762Z,10.40
2018-12-15T04:48:31.314Z,10.57
2018-12-15T04:51:00.499Z,10.37
2018-12-15T04:53:29.795Z,10.33
2018-12-15T04:55:59.123Z,10.43
2018-12-15T04:58:28.322Z,10.97
2018-12-15T05:00:59.542Z,11.20
2018-12-15T05:03:29.032Z,10.97
2018-12-15T05:05:58.301Z,11.43
2018-12-15T05:08:27.658Z,11.13
2018-12-15T05:10:56.831Z,11.07
2018-12-15T05:13:26.923Z,10.40
2018-12-15T05:15:56.280Z,10.70
2018-12-15T05:18:25.927Z,11.30
2018-12-15T05:20:55.088Z,11.57
2018-12-15T05:23:25.783Z,11.07
2018-12-15T05:25:55.893Z,11.83
2018-12-15T05:28:25.044Z,11.70
2018-12-15T05:30:54.271Z,11.33
2018-12-15T05:33:23.425Z,11.27
2018-12-15T05:35:52.623Z,11.40
2018-12-15T05:38:22.723Z,11.57
2018-12-15T05:40:52.968Z,12.10
2018-12-15T05:43:22.267Z,11.53
2018-12-15T05:45:51.528Z,11.53
2018-12-15T05:48:25.220Z,11.23
2018-12-15T05:50:54.683Z,11.60
2018-12-15T05:53:23.876Z,11.30
2018-12-15T05:55:55.742Z,11.27
2018-12-15T05:58:26.777Z,12.30
2018-12-15T06:00:56.103Z,11.37
2018-12-15T06:03:25.337Z,12.20
2018-12-15T06:05:54.632Z,12.77
2018-12-15T06:08:23.950Z,11.80
2018-12-15T06:10:54.592Z,11.03
2018-12-15T06:13:23.822Z,11.10
2018-12-15T06:15:53.656Z,11.67
2018-12-15T06:18:22.835Z,11.27
2018-12-15T06:20:52.019Z,11.73
2018-12-15T06:23:22.242Z,11.40
2018-12-15T06:25:51.827Z,12.53
2018-12-15T06:28:21.023Z,12.27
2018-12-15T06:30:50.310Z,12.47
2018-12-15T06:33:19.488Z,12.23
2018-12-15T06:42:37.168Z,11.87
2018-12-15T06:45:07.339Z,12.20
2018-12-15T06:47:37.465Z,12.70
2018-12-15T06:50:07.002Z,13.40
2018-12-15T06:52:36.244Z,12.70
2018-12-15T06:55:05.727Z,12.07
2018-12-15T06:57:36.760Z,12.50
2018-12-15T07:00:09.096Z,12.50
2018-12-15T07:02:38.279Z,11.40
2018-12-15T07:05:07.708Z,12.23
2018-12-15T07:07:37.295Z,12.83
2018-12-15T07:10:07.151Z,12.37
2018-12-15T07:12:36.840Z,13.40
2018-12-15T07:15:07.208Z,13.10
2018-12-15T07:17:37.358Z,13.47
2018-12-15T07:20:07.895Z,13.17
2018-12-15T07:22:38.902Z,13.50
2018-12-15T07:25:09.448Z,13.33
2018-12-15T07:27:39.058Z,13.40
2018-12-15T07:30:08.528Z,13.27
2018-12-15T07:32:38.447Z,12.57
2018-12-15T07:35:08.137Z,12.67
2018-12-15T07:37:37.974Z,13.27
2018-12-15T07:40:07.439Z,13.17
2018-12-15T07:42:36.718Z,13.07
2018-12-15T07:45:07.606Z,13.27
2018-12-15T07:47:37.325Z,13.43
2018-12-15T07:50:06.769Z,12.47
2018-12-15T07:52:35.969Z,13.40
2018-12-15T07:55:05.733Z,13.27
2018-12-15T07:57:36.279Z,13.57
2018-12-15T08:00:09.197Z,13.83
2018-12-15T08:02:38.486Z,13.13
2018-12-15T08:05:07.855Z,13.70
2018-12-15T08:07:39.343Z,13.27
2018-12-15T08:10:10.532Z,13.80
2018-12-15T08:12:43.047Z,13.57
2018-12-15T08:15:12.347Z,12.67
2018-12-15T08:17:42.131Z,14.40
2018-12-15T08:20:11.976Z,13.93
2018-12-15T08:22:41.172Z,13.73
2018-12-15T08:25:10.437Z,13.40
2018-12-15T08:27:41.218Z,14.00
2018-12-15T08:30:12.378Z,13.93
2018-12-15T08:32:41.579Z,13.73
2018-12-15T08:35:10.980Z,14.10
2018-12-15T08:37:40.179Z,13.73
2018-12-15T08:40:09.504Z,14.30
2018-12-15T08:42:39.660Z,14.83
2018-12-15T08:45:08.847Z,14.93
2018-12-15T08:47:37.999Z,14.90
2018-12-15T08:50:07.648Z,14.73
2018-12-15T08:52:36.878Z,15.60
2018-12-15T08:55:08.431Z,15.50
2018-12-15T08:57:37.595Z,14.33
2018-12-15T09:00:07.245Z,15.50
2018-12-15T09:02:37.380Z,16.03
2018-12-15T09:05:07.301Z,16.43
2018-12-15T09:07:38.032Z,16.03
2018-12-15T09:10:07.372Z,15.03
2018-12-15T09:12:36.547Z,14.67
2018-12-15T09:15:06.363Z,15.67
2018-12-15T09:17:36.423Z,16.30
2018-12-15T09:20:08.097Z,16.07
2018-12-15T09:22:37.468Z,14.50
2018-12-15T09:25:06.855Z,14.67
2018-12-15T09:27:37.660Z,15.83
2018-12-15T09:30:08.692Z,16.60
2018-12-15T09:32:38.588Z,16.50
2018-12-15T09:35:08.045Z,14.90
2018-12-15T09:37:38.664Z,16.03
2018-12-15T09:40:09.964Z,15.20
2018-12-15T09:42:39.594Z,13.90
2018-12-15T09:45:09.644Z,14.57
2018-12-15T09:47:39.988Z,14.50
2018-12-15T09:50:09.288Z,14.40
2018-12-15T09:52:38.528Z,14.50
2018-12-15T09:55:09.962Z,14.27
2018-12-15T09:57:39.615Z,14.63
2018-12-15T10:00:10.566Z,14.73
2018-12-15T10:02:40.865Z,14.97
2018-12-15T10:05:10.096Z,14.30
2018-12-15T10:07:39.316Z,14.57
2018-12-15T10:10:09.231Z,13.33
2018-12-15T10:12:38.424Z,15.20
2018-12-15T10:15:08.272Z,15.63
2018-12-15T10:17:38.863Z,14.73
2018-12-15T10:20:08.884Z,14.87
2018-12-15T10:22:40.455Z,14.70
2018-12-15T10:25:09.982Z,15.00
2018-12-15T10:27:39.234Z,14.10
2018-12-15T10:30:15.271Z,14.23
2018-12-15T10:32:53.176Z,15.47
2018-12-15T10:35:23.575Z,15.10
2018-12-15T10:37:52.858Z,14.47
2018-12-15T10:40:23.776Z,15.10
2018-12-15T10:42:53.380Z,15.63
2018-12-15T10:45:22.602Z,14.90
2018-12-15T10:47:51.784Z,14.13
2018-12-15T10:50:21.082Z,14.63
2018-12-15T10:52:51.199Z,15.20
2018-12-15T10:55:20.629Z,14.77
2018-12-15T10:57:49.991Z,14.47
2018-12-15T11:00:29.293Z,14.03
2018-12-15T11:02:59.943Z,14.70
2018-12-15T11:05:29.087Z,14.80
2018-12-15T11:07:58.326Z,15.03
2018-12-15T11:10:30.152Z,14.87
2018-12-15T11:12:59.927Z,15.30
2018-12-15T11:15:30.130Z,15.03
2018-12-15T11:17:59.345Z,15.43
2018-12-15T11:20:29.085Z,14.90
2018-12-15T11:22:58.262Z,14.97
2018-12-15T11:25:28.600Z,14.63
2018-12-15T11:27:58.176Z,15.03
2018-12-15T11:30:27.803Z,14.47
2018-12-15T11:32:57.095Z,15.17
2018-12-15T11:35:26.495Z,14.23
2018-12-15T11:37:56.214Z,13.77
2018-12-15T11:40:26.147Z,14.00
2018-12-15T11:42:55.622Z,14.00
2018-12-15T11:45:24.881Z,15.00
2018-12-15T11:47:54.594Z,14.00
2018-12-15T11:50:25.785Z,13.63
2018-12-15T11:52:55.592Z,13.60
2018-12-15T11:55:24.872Z,13.73
2018-12-15T11:57:54.170Z,13.57
2018-12-15T12:00:23.415Z,13.60
2018-12-15T12:02:53.269Z,13.20
2018-12-15T12:05:23.032Z,12.73
2018-12-15T12:07:52.319Z,12.63
2018-12-15T12:10:21.563Z,13.17
2018-12-15T12:12:50.783Z,12.97
2018-12-15T12:15:20.999Z,12.73
2018-12-15T12:17:50.600Z,12.63
2018-12-15T12:20:19.765Z,13.17
2018-12-15T12:22:50.161Z,12.20
2018-12-15T12:25:21.948Z,12.80
2018-12-15T12:27:53.887Z,13.43
2018-12-15T12:30:23.053Z,13.20
2018-12-15T12:32:53.498Z,12.87
2018-12-15T12:35:23.248Z,13.23
2018-12-15T12:37:52.447Z,13.40
2018-12-15T12:40:22.127Z,13.33
2018-12-15T12:42:53.531Z,14.27
2018-12-15T12:45:23.773Z,13.27
2018-12-15T12:47:53.204Z,13.07
2018-12-15T12:50:23.997Z,12.67
2018-12-15T12:52:53.198Z,12.80
2018-12-15T12:55:22.452Z,12.67
2018-12-15T12:57:53.598Z,13.63
2018-12-15T13:00:22.944Z,13.47
2018-12-15T13:02:52.656Z,12.80
2018-12-15T13:05:23.288Z,13.17
2018-12-15T13:07:52.943Z,13.23
2018-12-15T13:10:22.198Z,14.20
2018-12-15T13:12:52.215Z,13.30
2018-12-15T13:15:21.882Z,12.87
2018-12-15T13:17:51.176Z,13.27
2018-12-15T13:20:22.073Z,14.17
2018-12-15T13:22:51.249Z,14.23
2018-12-15T13:25:20.425Z,13.47
2018-12-15T13:27:50.182Z,13.47
2018-12-15T13:30:19.380Z,13.83
2018-12-15T13:32:49.127Z,13.97
2018-12-15T13:35:18.735Z,14.07
2018-12-15T13:37:47.963Z,14.73
2018-12-15T13:40:17.714Z,14.43
2018-12-15T13:42:47.551Z,15.00
2018-12-15T13:45:18.377Z,13.87
2018-12-15T13:47:47.564Z,14.30
2018-12-15T13:50:16.868Z,15.07
2018-12-15T13:52:46.661Z,14.23
2018-12-15T13:55:16.455Z,14.27
2018-12-15T13:57:46.270Z,14.17
2018-12-15T14:00:15.468Z,14.37
2018-12-15T14:02:44.640Z,13.83
2018-12-15T14:05:13.968Z,13.40
2018-12-15T14:07:44.666Z,15.03
2018-12-15T14:13:19.599Z,15.00
2018-12-15T14:15:49.090Z,14.83
2018-12-15T14:18:19.437Z,14.43
2018-12-15T14:20:48.691Z,13.90
2018-12-15T14:23:17.944Z,14.27
2018-12-15T14:25:47.762Z,13.10
2018-12-15T14:28:17.044Z,13.80
2018-12-15T14:30:47.730Z,14.10
2018-12-15T14:33:16.927Z,14.53
2018-12-15T14:35:47.679Z,14.50
2018-12-15T14:38:17.027Z,14.70
2018-12-15T14:40:46.770Z,13.97
2018-12-15T14:43:16.557Z,13.60
2018-12-15T14:45:45.939Z,13.27
2018-12-15T14:48:15.446Z,14.53
2018-12-15T14:50:44.758Z,14.30
2018-12-15T14:53:15.808Z,14.33
2018-12-15T14:55:45.189Z,13.93
2018-12-15T14:58:14.461Z,14.07
2018-12-15T15:00:43.918Z,14.33
2018-12-15T15:03:13.191Z,13.20
2018-12-15T15:05:43.691Z,13.60
2018-12-15T15:08:13.562Z,13.57
2018-12-15T15:10:43.354Z,13.40
2018-12-15T15:13:12.670Z,13.73
2018-12-15T15:15:42.408Z,14.57
2018-12-15T15:18:13.283Z,14.00
2018-12-15T15:20:42.510Z,13.60
2018-12-15T15:23:11.752Z,13.97
2018-12-15T15:25:40.965Z,14.50
2018-12-15T15:28:11.609Z,12.90
2018-12-15T15:30:41.063Z,14.80
2018-12-15T15:33:10.919Z,13.73
2018-12-15T15:35:40.162Z,14.83
2018-12-15T15:38:11.058Z,12.90
2018-12-15T15:40:40.746Z,13.47
2018-12-15T15:43:09.924Z,14.13
2018-12-15T15:45:39.143Z,14.00
2018-12-15T15:48:08.387Z,14.33
2018-12-15T15:50:38.184Z,14.07
2018-12-15T15:53:07.557Z,14.77
2018-12-15T15:55:36.740Z,13.57
2018-12-15T15:58:06.496Z,13.70
2018-12-15T16:00:37.219Z,14.00
2018-12-15T16:03:08.625Z,13.87
2018-12-15T16:05:37.881Z,14.47
2018-12-15T16:08:07.569Z,14.07
2018-12-15T16:10:37.541Z,13.63
2018-12-15T16:13:07.398Z,14.50
2018-12-15T16:15:37.146Z,13.87
2018-12-15T16:18:06.439Z,14.00
2018-12-15T16:20:43.018Z,14.47
2018-12-15T16:23:08.696Z,15.33
2018-12-15T16:25:38.796Z,13.90
2018-12-15T16:28:08.119Z,14.57
2018-12-15T16:30:37.444Z,13.77
2018-12-15T16:33:07.803Z,14.40
2018-12-15T16:35:39.243Z,14.37
2018-12-15T16:38:08.972Z,14.47
2018-12-15T16:40:38.295Z,13.83
2018-12-15T16:43:08.291Z,14.87
2018-12-15T16:45:37.490Z,15.20
2018-12-15T16:48:08.134Z,14.70
2018-12-15T16:50:37.731Z,14.80
2018-12-15T16:53:07.034Z,13.90
2018-12-15T16:55:36.227Z,14.40
2018-12-15T16:58:05.862Z,14.93
2018-12-15T17:00:36.205Z,14.77
2018-12-15T17:03:05.606Z,14.93
2018-12-15T17:05:35.285Z,15.23
2018-12-15T17:08:04.494Z,15.37
2018-12-15T17:10:33.740Z,15.17
2018-12-15T17:13:05.331Z,14.53
2018-12-15T17:15:34.578Z,15.10
2018-12-15T17:18:04.108Z,14.57
2018-12-15T17:20:33.391Z,15.23
2018-12-15T17:23:02.685Z,14.90
2018-12-15T17:25:32.882Z,15.73
2018-12-15T17:28:02.114Z,14.63
2018-12-15T17:30:32.302Z,14.63
2018-12-15T17:33:01.804Z,14.60
2018-12-15T17:35:32.643Z,14.90
2018-12-15T17:38:03.300Z,14.33
2018-12-15T17:40:32.523Z,14.77
2018-12-15T17:43:02.423Z,14.57
2018-12-15T17:45:31.829Z,14.70
2018-12-15T17:48:01.642Z,13.33
2018-12-15T17:50:31.666Z,15.50
2018-12-15T17:53:00.915Z,14.00
2018-12-15T17:55:30.219Z,14.90
2018-12-15T17:57:59.561Z,14.83
2018-12-15T18:00:29.847Z,14.93
2018-12-15T18:02:59.093Z,14.43
2018-12-15T18:05:30.442Z,14.43
2018-12-15T18:08:02.196Z,14.47
2018-12-15T18:10:32.652Z,15.40
2018-12-15T18:13:02.025Z,15.13
2018-12-15T18:15:31.227Z,14.60
2018-12-15T18:18:01.550Z,14.93
2018-12-15T18:20:30.916Z,14.57
2018-12-15T18:23:02.490Z,15.23
2018-12-15T18:25:31.671Z,14.70
2018-12-15T18:29:04.506Z,15.47
2018-12-15T18:31:33.716Z,14.10
2018-12-15T18:34:03.890Z,14.50
2018-12-15T18:36:33.118Z,14.80
2018-12-15T18:39:02.448Z,15.73
2018-12-15T18:41:32.738Z,15.17
2018-12-15T18:44:04.091Z,15.33
2018-12-15T18:46:33.667Z,15.33
2018-12-15T18:49:02.994Z,15.30
2018-12-15T18:51:32.313Z,15.63
2018-12-15T18:54:01.610Z,14.83
2018-12-15T18:56:31.921Z,15.63
2018-12-15T18:59:02.452Z,14.63
2018-12-15T19:01:31.614Z,15.87
2018-12-15T19:04:00.895Z,15.53
2018-12-15T19:06:30.632Z,16.00
2018-12-15T19:09:04.175Z,16.47
2018-12-15T19:11:32.811Z,14.83
2018-12-15T19:14:02.134Z,15.83
2018-12-15T19:16:32.740Z,16.50
2018-12-15T19:19:03.315Z,16.63
2018-12-15T19:21:32.539Z,16.70
2018-12-15T19:24:02.148Z,16.43
2018-12-15T19:26:32.987Z,15.03
2018-12-15T19:29:03.982Z,16.20
2018-12-15T19:31:33.331Z,15.53
2018-12-15T19:34:02.647Z,16.67
2018-12-15T19:36:31.871Z,16.77
2018-12-15T19:39:01.930Z,16.53
2018-12-15T19:41:32.731Z,16.27
2018-12-15T19:44:02.034Z,15.97
2018-12-15T19:46:32.397Z,18.83
2018-12-15T19:49:02.126Z,17.30
2018-12-15T19:51:31.919Z,18.13
2018-12-15T19:54:01.167Z,16.50
2018-12-15T19:56:31.638Z,18.00
2018-12-15T19:59:00.952Z,17.93
2018-12-15T20:01:31.035Z,18.83
2018-12-15T20:04:00.360Z,20.27
2018-12-15T20:06:29.585Z,17.83
2018-12-15T20:08:58.876Z,17.17
2018-12-15T20:11:28.490Z,18.00
2018-12-15T20:13:59.818Z,17.80
2018-12-15T20:16:30.368Z,16.77
2018-12-15T20:18:59.563Z,17.60
2018-12-15T20:21:28.748Z,17.40
2018-12-15T20:23:58.456Z,26.63
2018-12-15T20:26:31.623Z,17.67
2018-12-15T20:29:01.180Z,17.67
2018-12-15T20:31:31.175Z,17.07
2018-12-15T20:34:03.321Z,17.77
2018-12-15T20:36:32.620Z,17.50
2018-12-15T20:39:01.808Z,17.27
2018-12-15T20:41:33.257Z,17.20
2018-12-15T20:44:03.471Z,17.33
2018-12-15T20:46:33.051Z,18.20
2018-12-15T20:49:02.330Z,17.50
2018-12-15T20:51:31.537Z,17.83
2018-12-15T20:54:01.045Z,17.63
2018-12-15T20:56:32.766Z,18.53
2018-12-15T20:59:01.962Z,18.67
2018-12-15T21:01:31.267Z,17.67
2018-12-15T21:04:00.519Z,18.23
2018-12-15T21:06:31.693Z,17.77
2018-12-15T21:09:03.151Z,18.50
2018-12-15T21:11:33.384Z,18.40
2018-12-15T21:14:02.667Z,18.23
2018-12-15T21:16:34.119Z,17.83
2018-12-15T21:19:03.700Z,17.83
2018-12-15T21:21:32.927Z,16.97
2018-12-15T21:24:02.451Z,17.63
2018-12-15T21:26:32.840Z,17.47
2018-12-15T21:29:02.755Z,19.07
2018-12-15T21:31:33.521Z,17.33
2018-12-15T21:34:07.829Z,19.33
2018-12-15T21:36:37.662Z,20.60
2018-12-15T21:39:07.525Z,19.33
2018-12-15T21:41:39.847Z,18.00
2018-12-15T21:44:09.073Z,17.07
2018-12-15T21:46:38.982Z,18.67
2018-12-15T21:49:08.275Z,17.10
2018-12-15T21:51:37.767Z,16.60
2018-12-15T21:54:07.584Z,18.53
2018-12-15T21:56:36.831Z,17.60
2018-12-15T21:59:07.709Z,17.60
2018-12-15T22:01:38.756Z,17.90
2018-12-15T22:04:08.372Z,17.67
2018-12-15T22:06:38.589Z,17.83
2018-12-15T22:09:08.990Z,18.20
2018-12-15T22:11:38.247Z,17.20
2018-12-15T22:14:07.451Z,17.33
2018-12-15T22:16:37.527Z,17.33
2018-12-15T22:19:06.718Z,16.50
2018-12-15T22:21:39.091Z,17.30
2018-12-15T22:24:08.418Z,18.13
2018-12-15T22:26:37.754Z,17.63
2018-12-15T22:29:07.588Z,16.17
2018-12-15T22:31:36.895Z,16.90
2018-12-15T22:34:06.133Z,17.63
2018-12-15T22:36:37.074Z,17.50
2018-12-15T22:39:08.379Z,18.27
2018-12-15T22:41:38.075Z,17.63
2018-12-15T22:44:09.017Z,17.10
2018-12-15T22:46:38.213Z,17.80
2018-12-15T22:49:07.696Z,17.50
2018-12-15T22:51:36.896Z,17.87
2018-12-15T22:54:07.002Z,18.03
2018-12-15T22:56:36.414Z,18.40
2018-12-15T22:59:05.659Z,18.90
2018-12-15T23:01:40.250Z,18.23
2018-12-15T23:04:10.840Z,17.83
2018-12-15T23:06:40.069Z,18.13
2018-12-15T23:09:10.573Z,18.90
2018-12-15T23:11:39.789Z,19.27
2018-12-15T23:14:09.429Z,18.93
2018-12-15T23:16:39.506Z,17.87
2018-12-15T23:19:08.727Z,18.77
2018-12-15T23:21:38.315Z,18.83
2018-12-15T23:24:07.647Z,18.87
2018-12-15T23:26:37.642Z,19.07
2018-12-15T23:29:06.899Z,19.43
2018-12-15T23:31:36.339Z,17.70
2018-12-15T23:34:05.622Z,19.37
2018-12-15T23:36:34.875Z,18.97
2018-12-15T23:39:08.243Z,19.70
2018-12-15T23:41:37.458Z,18.53
2018-12-15T23:44:06.675Z,19.37
2018-12-15T23:46:36.342Z,18.13
2018-12-15T23:49:10.377Z,18.73
2018-12-15T23:51:39.684Z,18.73
2018-12-15T23:54:08.899Z,19.23
2018-12-15T23:56:38.159Z,18.93
2018-12-15T23:59:08.006Z,19.33
